Time;durP1;ratioP1;P1;durP2;ratioP2;P2;SDS_P1;SDS_P2;PMS_P1;PMS_P2;Temp;Humidity;BMP_temperature;BMP_pressure;BME280_temperature;BME280_humidity;BME280_pressure;Samples;Min_cycle;Max_cycle;Signal;HPM_P1;HPM_P2
2022/10/19 00:01:22;;;;;;;1.70;0.43;;;6.80;99.90;;;;;;5074654;28;20033;-89
2022/10/19 00:03:52;;;;;;;1.10;0.38;;;6.70;99.90;;;;;;5065749;28;20384;-81
2022/10/19 00:06:26;;;;;;;2.38;0.50;;;6.70;99.90;;;;;;5080814;28;20410;-77
2022/10/19 00:08:54;;;;;;;3.50;0.40;;;6.70;99.90;;;;;;5065585;28;20041;-82
2022/10/19 00:11:20;;;;;;;1.70;0.50;;;6.70;99.90;;;;;;5063829;28;20295;-81
2022/10/19 00:13:45;;;;;;;1.70;0.40;;;6.70;99.90;;;;;;5066609;28;20025;-83
2022/10/19 00:16:13;;;;;;;2.63;0.60;;;6.50;99.90;;;;;;5064955;28;20426;-85
2022/10/19 00:18:39;;;;;;;1.10;0.40;;;6.80;99.90;;;;;;5077589;28;20032;-84
2022/10/19 00:21:07;;;;;;;3.83;0.60;;;6.80;99.90;;;;;;5048722;28;20632;-90
2022/10/19 00:23:33;;;;;;;1.83;0.50;;;6.70;99.90;;;;;;5063840;28;20040;-77
2022/10/19 00:25:59;;;;;;;1.27;0.40;;;6.50;99.90;;;;;;5080665;28;20036;-88
2022/10/19 00:28:25;;;;;;;1.50;0.40;;;6.50;99.90;;;;;;5065101;28;20021;-77
2022/10/19 00:30:51;;;;;;;2.22;0.50;;;6.30;99.90;;;;;;5077261;28;20087;-89
2022/10/19 00:33:20;;;;;;;3.08;0.40;;;6.40;99.90;;;;;;5061573;28;20017;-85
2022/10/19 00:35:50;;;;;;;2.72;0.38;;;6.60;99.90;;;;;;5049049;28;20028;-80
2022/10/19 00:38:17;;;;;;;2.13;0.63;;;6.60;99.90;;;;;;5066678;28;20029;-89
2022/10/19 00:40:43;;;;;;;4.05;0.50;;;6.50;99.90;;;;;;5066309;28;20059;-90
2022/10/19 00:43:24;;;;;;;1.33;0.50;;;6.60;99.90;;;;;;5065071;28;20490;-77
2022/10/19 00:45:51;;;;;;;2.17;0.50;;;6.40;99.90;;;;;;5062978;28;20051;-89
2022/10/19 00:48:30;;;;;;;2.03;0.55;;;6.40;99.90;;;;;;5064639;28;20023;-88
2022/10/19 00:50:58;;;;;;;1.15;0.40;;;6.30;99.90;;;;;;5057609;28;20041;-84
2022/10/19 00:53:26;;;;;;;1.77;0.50;;;6.40;99.90;;;;;;5055351;28;20025;-83
2022/10/19 00:55:52;;;;;;;2.63;0.90;;;6.30;99.90;;;;;;5063474;28;20393;-77
2022/10/19 00:58:18;;;;;;;1.85;0.60;;;6.30;99.90;;;;;;5063663;28;20485;-91
2022/10/19 01:00:44;;;;;;;5.03;0.70;;;6.30;99.90;;;;;;5065907;28;20040;-79
2022/10/19 01:03:12;;;;;;;1.65;0.52;;;6.30;99.90;;;;;;5064425;28;20031;-77
2022/10/19 01:05:38;;;;;;;2.20;0.90;;;6.20;99.90;;;;;;5054982;28;20025;-78
2022/10/19 01:08:06;;;;;;;3.55;0.80;;;6.10;99.90;;;;;;5081159;28;20038;-79
2022/10/19 01:10:51;;;;;;;2.75;0.70;;;6.20;99.90;;;;;;5061690;28;20071;-77
2022/10/19 01:13:39;;;;;;;2.03;0.60;;;6.30;99.90;;;;;;5045158;28;20021;-84
2022/10/19 01:16:17;;;;;;;2.33;0.60;;;6.30;99.90;;;;;;5063953;28;20032;-86
2022/10/19 01:18:50;;;;;;;1.45;0.60;;;6.20;99.90;;;;;;5063417;28;20057;-91
2022/10/19 01:21:21;;;;;;;2.30;0.50;;;6.30;99.90;;;;;;5044702;28;20519;-90
2022/10/19 01:24:27;;;;;;;1.42;0.50;;;6.20;99.90;;;;;;5065225;28;20115;-91
2022/10/19 01:27:15;;;;;;;2.95;0.50;;;6.10;99.90;;;;;;5064250;28;20071;-85
2022/10/19 01:29:59;;;;;;;2.15;0.70;;;6.10;99.90;;;;;;5051352;28;20024;-90
2022/10/19 01:32:41;;;;;;;4.40;0.80;;;6.00;99.90;;;;;;5066088;28;20031;-90
2022/10/19 01:35:23;;;;;;;1.38;0.50;;;6.00;99.90;;;;;;5066217;28;20086;-85
2022/10/19 01:38:10;;;;;;;2.88;0.60;;;6.00;99.90;;;;;;5076567;28;20035;-82
2022/10/19 01:40:58;;;;;;;2.70;0.60;;;5.90;99.90;;;;;;5059060;28;20052;-83
2022/10/19 01:43:23;;;;;;;1.70;0.50;;;5.90;99.90;;;;;;5081622;28;20545;-81
2022/10/19 01:46:13;;;;;;;2.05;0.82;;;5.90;99.90;;;;;;5051735;28;20095;-78
2022/10/19 01:48:42;;;;;;;1.97;0.73;;;5.90;99.90;;;;;;5050513;28;20082;-83
2022/10/19 01:51:19;;;;;;;1.52;0.52;;;5.80;99.90;;;;;;5082630;28;20107;-77
2022/10/19 01:53:49;;;;;;;1.65;0.60;;;5.80;99.90;;;;;;5068330;28;20027;-87
2022/10/19 01:56:18;;;;;;;1.33;0.50;;;5.70;99.90;;;;;;5063803;28;20033;-80
2022/10/19 01:58:45;;;;;;;2.92;0.80;;;5.80;99.90;;;;;;5062402;28;20115;-92
2022/10/19 02:01:15;;;;;;;2.45;0.60;;;5.80;99.90;;;;;;5069318;28;20032;-91
2022/10/19 02:03:41;;;;;;;3.40;0.65;;;5.80;99.90;;;;;;5077487;28;20090;-79
2022/10/19 02:06:09;;;;;;;1.50;0.52;;;5.90;99.90;;;;;;5064468;28;20046;-77
2022/10/19 02:08:49;;;;;;;1.83;0.70;;;5.90;99.90;;;;;;5065234;28;20396;-88
2022/10/19 02:11:16;;;;;;;3.00;0.68;;;5.80;99.90;;;;;;5064857;28;20087;-89
2022/10/19 02:13:45;;;;;;;3.67;0.80;;;5.70;99.90;;;;;;5066560;28;20464;-82
2022/10/19 02:16:21;;;;;;;1.30;0.50;;;5.80;99.90;;;;;;5076631;28;20023;-87
2022/10/19 02:18:50;;;;;;;3.50;0.60;;;5.70;99.90;;;;;;5049790;28;20477;-81
2022/10/19 02:21:16;;;;;;;2.00;0.80;;;5.70;99.90;;;;;;5057770;28;20031;-77
2022/10/19 02:23:42;;;;;;;1.90;0.60;;;5.70;99.90;;;;;;5062790;28;20039;-87
2022/10/19 02:26:08;;;;;;;1.80;0.60;;;5.70;99.90;;;;;;5050364;28;20475;-85
2022/10/19 02:28:34;;;;;;;1.35;0.52;;;5.60;99.90;;;;;;5066653;28;20461;-86
2022/10/19 02:31:00;;;;;;;1.30;0.73;;;5.50;99.90;;;;;;5064884;28;20032;-80
2022/10/19 02:33:27;;;;;;;3.28;0.90;;;5.50;99.90;;;;;;5063241;28;20028;-90
2022/10/19 02:35:53;;;;;;;2.17;0.60;;;5.60;99.90;;;;;;5064203;28;20033;-88
2022/10/19 02:38:21;;;;;;;1.60;0.60;;;5.60;99.90;;;;;;5062700;28;20035;-89
2022/10/19 02:41:03;;;;;;;3.13;0.70;;;5.60;99.90;;;;;;5048291;28;20035;-85
2022/10/19 02:43:32;;;;;;;1.88;0.60;;;5.50;99.90;;;;;;5067361;28;20032;-84
2022/10/19 02:46:26;;;;;;;1.90;0.90;;;5.50;99.90;;;;;;5068169;28;20067;-79
2022/10/19 02:48:54;;;;;;;2.38;0.70;;;5.50;99.90;;;;;;5063478;28;20041;-89
2022/10/19 02:51:31;;;;;;;2.05;0.60;;;5.50;99.90;;;;;;5065801;28;20327;-82
2022/10/19 02:53:57;;;;;;;2.00;0.50;;;5.50;99.90;;;;;;5063023;28;20071;-80
2022/10/19 02:56:22;;;;;;;1.77;0.50;;;5.50;99.90;;;;;;5064359;28;20048;-80
2022/10/19 02:58:48;;;;;;;1.90;0.60;;;5.60;99.90;;;;;;5081132;28;20044;-85
2022/10/19 03:01:14;;;;;;;4.32;0.60;;;5.60;99.90;;;;;;5067710;28;20025;-91
2022/10/19 03:03:39;;;;;;;1.58;0.40;;;5.60;99.90;;;;;;5068689;28;20037;-87
2022/10/19 03:06:05;;;;;;;1.20;0.47;;;5.50;99.90;;;;;;5064478;28;20037;-89
2022/10/19 03:08:31;;;;;;;2.85;0.40;;;5.60;99.90;;;;;;5065258;28;20054;-86
2022/10/19 03:11:00;;;;;;;1.70;0.50;;;5.60;99.90;;;;;;5067383;28;20039;-79
2022/10/19 03:13:26;;;;;;;3.67;0.50;;;5.50;99.90;;;;;;5067196;28;20032;-90
2022/10/19 03:15:51;;;;;;;1.77;0.70;;;5.50;99.90;;;;;;5051790;28;20033;-85
2022/10/19 03:18:17;;;;;;;0.85;0.30;;;5.50;99.90;;;;;;5062663;28;20035;-89
2022/10/19 03:20:43;;;;;;;2.20;0.40;;;5.60;99.90;;;;;;5065174;28;20366;-88
2022/10/19 03:23:08;;;;;;;1.13;0.40;;;5.70;99.90;;;;;;5065831;28;20090;-87
2022/10/19 03:25:34;;;;;;;1.00;0.40;;;5.60;99.90;;;;;;5081760;28;20033;-89
2022/10/19 03:28:00;;;;;;;1.30;0.40;;;5.70;99.90;;;;;;5062762;28;20111;-87
2022/10/19 03:30:26;;;;;;;0.75;0.38;;;5.60;99.90;;;;;;5064291;28;20124;-77
2022/10/19 03:32:52;;;;;;;1.00;0.40;;;5.50;99.90;;;;;;5067466;28;20037;-86
2022/10/19 03:35:18;;;;;;;0.60;0.30;;;5.60;99.90;;;;;;5067363;28;20035;-86
2022/10/19 03:37:43;;;;;;;0.63;0.30;;;5.70;99.90;;;;;;5079351;28;20041;-88
2022/10/19 03:40:09;;;;;;;0.77;0.30;;;5.70;99.90;;;;;;5064047;28;20028;-86
2022/10/19 03:42:35;;;;;;;1.75;0.30;;;5.60;99.90;;;;;;5067712;28;20115;-80
2022/10/19 03:45:01;;;;;;;0.57;0.30;;;5.70;99.90;;;;;;5049356;28;20040;-80
2022/10/19 03:47:27;;;;;;;0.75;0.30;;;5.70;99.90;;;;;;5064042;28;20032;-81
2022/10/19 03:49:52;;;;;;;0.77;0.32;;;5.80;99.90;;;;;;5064545;28;20032;-91
2022/10/19 03:52:19;;;;;;;0.70;0.30;;;5.70;99.90;;;;;;5063962;28;20389;-79
2022/10/19 03:54:45;;;;;;;0.95;0.40;;;5.90;99.90;;;;;;5063341;28;20028;-91
2022/10/19 03:57:11;;;;;;;0.75;0.30;;;5.90;99.90;;;;;;5062836;28;20025;-88
2022/10/19 03:59:37;;;;;;;1.55;0.30;;;5.90;99.90;;;;;;5064497;28;20035;-80
2022/10/19 04:02:03;;;;;;;0.90;0.63;;;5.90;99.90;;;;;;5064879;28;20024;-87
2022/10/19 04:04:29;;;;;;;0.85;0.40;;;6.00;99.90;;;;;;5061373;28;20098;-79
2022/10/19 04:06:54;;;;;;;0.57;0.30;;;6.00;99.90;;;;;;5062110;28;20045;-88
2022/10/19 04:09:21;;;;;;;0.80;0.30;;;5.90;99.90;;;;;;5065134;28;20020;-79
2022/10/19 04:11:47;;;;;;;1.45;0.30;;;6.00;99.90;;;;;;5062470;28;20028;-86
2022/10/19 04:14:15;;;;;;;0.70;0.30;;;6.00;99.90;;;;;;5060114;28;20024;-85
2022/10/19 04:16:40;;;;;;;0.50;0.20;;;6.00;99.90;;;;;;5079974;28;20028;-78
2022/10/19 04:19:07;;;;;;;0.50;0.20;;;5.90;99.90;;;;;;5063946;28;20032;-88
2022/10/19 04:21:35;;;;;;;0.40;0.20;;;5.90;99.90;;;;;;5066378;28;20028;-85
2022/10/19 04:24:07;;;;;;;0.40;0.20;;;5.90;99.90;;;;;;5064035;28;20029;-77
2022/10/19 04:26:38;;;;;;;0.40;0.20;;;5.90;99.90;;;;;;5061828;28;20674;-87
2022/10/19 04:29:04;;;;;;;1.40;0.20;;;5.80;99.90;;;;;;5063517;28;20101;-80
2022/10/19 04:31:29;;;;;;;0.80;0.25;;;5.90;99.90;;;;;;5079285;28;20079;-89
2022/10/19 04:33:56;;;;;;;1.02;0.20;;;5.80;99.90;;;;;;5062435;28;20044;-77
2022/10/19 04:36:21;;;;;;;0.60;0.30;;;5.80;99.90;;;;;;5080712;28;20514;-78
2022/10/19 04:38:47;;;;;;;0.32;0.20;;;5.70;99.90;;;;;;5064547;28;20056;-78
2022/10/19 04:41:15;;;;;;;0.70;0.30;;;5.60;99.90;;;;;;5049455;28;20025;-87
2022/10/19 04:43:44;;;;;;;0.63;0.30;;;5.70;99.90;;;;;;5076932;28;20020;-85
2022/10/19 04:46:13;;;;;;;0.50;0.25;;;5.70;99.90;;;;;;5063872;28;20045;-79
2022/10/19 04:48:39;;;;;;;0.50;0.20;;;5.50;99.90;;;;;;5062427;28;20013;-84
2022/10/19 04:51:06;;;;;;;0.75;0.30;;;5.50;99.90;;;;;;5061407;28;20535;-78
2022/10/19 04:53:33;;;;;;;0.50;0.20;;;5.70;99.90;;;;;;5049180;28;20025;-84
2022/10/19 04:55:59;;;;;;;0.77;0.30;;;5.70;99.90;;;;;;5044503;28;20037;-88
2022/10/19 04:58:26;;;;;;;0.57;0.30;;;5.70;99.90;;;;;;5059373;28;20048;-88
2022/10/19 05:00:51;;;;;;;0.55;0.30;;;5.60;99.90;;;;;;5065639;28;20025;-84
2022/10/19 05:03:17;;;;;;;0.60;0.30;;;5.50;99.90;;;;;;5064158;28;20440;-77
2022/10/19 05:05:43;;;;;;;0.57;0.30;;;5.50;99.90;;;;;;5074254;28;20041;-82
2022/10/19 05:08:09;;;;;;;0.80;0.30;;;5.40;99.90;;;;;;5049532;28;20074;-78
2022/10/19 05:10:36;;;;;;;0.75;0.30;;;5.30;99.90;;;;;;5078463;28;20175;-90
2022/10/19 05:13:03;;;;;;;0.50;0.30;;;5.30;99.90;;;;;;5065741;28;20029;-86
2022/10/19 05:15:29;;;;;;;0.80;0.35;;;5.40;99.90;;;;;;5062281;28;20032;-76
2022/10/19 05:17:55;;;;;;;0.93;0.30;;;5.30;99.90;;;;;;5065950;28;20031;-84
2022/10/19 05:20:21;;;;;;;0.80;0.30;;;5.20;99.90;;;;;;5027862;28;20443;-89
2022/10/19 05:22:47;;;;;;;0.70;0.30;;;5.10;99.90;;;;;;5066397;28;20027;-79
2022/10/19 05:25:13;;;;;;;1.25;0.40;;;5.10;99.90;;;;;;5072335;28;20029;-78
2022/10/19 05:27:39;;;;;;;0.80;0.40;;;5.10;99.90;;;;;;5062095;28;20033;-90
2022/10/19 05:30:05;;;;;;;0.80;0.30;;;5.20;99.90;;;;;;5063500;28;20028;-84
2022/10/19 05:32:31;;;;;;;0.60;0.30;;;5.20;99.90;;;;;;5061032;28;20028;-80
2022/10/19 05:34:57;;;;;;;1.98;0.50;;;5.10;99.90;;;;;;5062730;28;20397;-89
2022/10/19 05:37:24;;;;;;;0.80;0.30;;;5.10;99.90;;;;;;5064609;28;20107;-78
2022/10/19 05:39:53;;;;;;;0.55;0.22;;;5.10;99.90;;;;;;5064439;28;20035;-77
2022/10/19 05:42:18;;;;;;;0.90;0.30;;;4.90;99.90;;;;;;5064849;28;20036;-90
2022/10/19 05:44:44;;;;;;;0.60;0.30;;;4.80;99.90;;;;;;5061708;28;20037;-91
2022/10/19 05:47:10;;;;;;;0.47;0.22;;;4.80;99.90;;;;;;5064875;28;20048;-77
2022/10/19 05:49:35;;;;;;;0.57;0.20;;;4.70;99.90;;;;;;5078824;28;20073;-78
2022/10/19 05:52:01;;;;;;;0.68;0.38;;;4.90;99.90;;;;;;5061068;28;20144;-78
2022/10/19 05:54:27;;;;;;;0.95;0.40;;;4.90;99.90;;;;;;5072447;28;20461;-86
2022/10/19 05:56:52;;;;;;;0.77;0.30;;;4.70;99.90;;;;;;5061108;28;20173;-79
2022/10/19 05:59:20;;;;;;;0.68;0.30;;;4.70;99.90;;;;;;5047860;28;20039;-79
2022/10/19 06:01:46;;;;;;;0.70;0.30;;;4.80;99.90;;;;;;5062393;28;20017;-79
2022/10/19 06:04:13;;;;;;;0.85;0.30;;;4.70;99.90;;;;;;5061297;28;20473;-79
2022/10/19 06:06:42;;;;;;;1.05;0.30;;;4.70;99.90;;;;;;5065508;28;20055;-79
2022/10/19 06:09:09;;;;;;;0.80;0.35;;;4.70;99.90;;;;;;5073572;28;20043;-77
2022/10/19 06:11:38;;;;;;;0.98;0.30;;;4.70;99.90;;;;;;5051133;28;20396;-78
2022/10/19 06:14:06;;;;;;;0.60;0.30;;;4.70;99.90;;;;;;5064178;28;20381;-88
2022/10/19 06:16:32;;;;;;;1.08;0.40;;;4.70;99.90;;;;;;5078004;28;20028;-77
2022/10/19 06:18:59;;;;;;;0.80;0.30;;;4.70;99.90;;;;;;5052851;28;20405;-79
2022/10/19 06:21:27;;;;;;;0.65;0.30;;;4.70;99.90;;;;;;5063583;28;20093;-77
2022/10/19 06:23:56;;;;;;;1.15;0.30;;;4.70;99.90;;;;;;5068721;28;20027;-91
2022/10/19 06:26:22;;;;;;;0.63;0.38;;;4.70;99.90;;;;;;5063109;28;20094;-77
2022/10/19 06:28:48;;;;;;;0.90;0.40;;;4.60;99.90;;;;;;5051867;28;20043;-83
2022/10/19 06:31:14;;;;;;;0.65;0.30;;;4.50;99.90;;;;;;5049398;28;20036;-84
2022/10/19 06:33:42;;;;;;;0.60;0.30;;;4.60;99.90;;;;;;5068525;28;20034;-79
2022/10/19 06:36:17;;;;;;;1.25;0.30;;;4.70;99.90;;;;;;5062758;28;20028;-77
2022/10/19 06:38:43;;;;;;;1.00;0.40;;;4.70;99.90;;;;;;5067027;28;20103;-88
2022/10/19 06:41:10;;;;;;;1.13;0.47;;;4.70;99.90;;;;;;5066686;28;20029;-87
2022/10/19 06:43:36;;;;;;;0.70;0.40;;;4.70;99.90;;;;;;5063915;28;20064;-89
2022/10/19 06:46:10;;;;;;;1.10;0.50;;;4.80;99.90;;;;;;5067325;28;20040;-90
2022/10/19 06:48:36;;;;;;;0.80;0.40;;;4.80;99.90;;;;;;5082587;28;20504;-85
2022/10/19 06:51:06;;;;;;;1.13;0.47;;;4.90;99.90;;;;;;5063742;28;20073;-86
2022/10/19 06:53:33;;;;;;;0.90;0.50;;;4.90;99.90;;;;;;5051673;28;20111;-84
2022/10/19 06:56:03;;;;;;;0.80;0.40;;;4.80;99.90;;;;;;5065910;28;20486;-88
2022/10/19 06:58:29;;;;;;;;;;;4.90;99.90;;;;;;5068647;28;20066;-91
2022/10/19 07:00:57;;;;;;;0.75;0.30;;;5.10;99.90;;;;;;5063430;28;19908;-80
2022/10/19 07:03:24;;;;;;;0.80;0.30;;;5.10;99.90;;;;;;5066229;28;20081;-90
2022/10/19 07:05:58;;;;;;;0.80;0.30;;;5.10;99.90;;;;;;5067849;28;20029;-87
2022/10/19 07:08:25;;;;;;;1.30;0.35;;;5.20;99.90;;;;;;5041415;28;20440;-83
2022/10/19 07:10:52;;;;;;;0.90;0.40;;;5.30;99.90;;;;;;5065679;28;20078;-88
2022/10/19 07:13:18;;;;;;;0.60;0.28;;;5.30;99.90;;;;;;5067259;28;20036;-87
2022/10/19 07:15:44;;;;;;;1.10;0.40;;;5.40;99.90;;;;;;5066932;28;20154;-83
2022/10/19 07:18:09;;;;;;;1.00;0.40;;;5.50;99.90;;;;;;5046112;28;20111;-78
2022/10/19 07:20:35;;;;;;;0.47;0.22;;;5.40;99.90;;;;;;5049335;28;20447;-86
2022/10/19 07:23:01;;;;;;;1.27;0.40;;;5.50;99.90;;;;;;5046316;28;20025;-84
2022/10/19 07:25:28;;;;;;;1.00;0.40;;;5.60;99.90;;;;;;5065671;28;20042;-84
2022/10/19 07:27:54;;;;;;;1.20;0.47;;;5.60;99.90;;;;;;5067525;28;20036;-86
2022/10/19 07:30:20;;;;;;;2.40;0.50;;;5.80;99.90;;;;;;5066278;28;20035;-82
2022/10/19 07:32:45;;;;;;;1.38;0.40;;;5.90;99.90;;;;;;5067498;28;20428;-84
2022/10/19 07:35:11;;;;;;;1.80;0.43;;;6.00;99.90;;;;;;5064373;28;20099;-83
2022/10/19 07:37:36;;;;;;;1.75;0.50;;;6.00;99.90;;;;;;5049194;28;20474;-86
2022/10/19 07:40:03;;;;;;;1.15;0.60;;;6.10;99.90;;;;;;5066438;28;20035;-85
2022/10/19 07:42:32;;;;;;;1.02;0.40;;;6.30;99.90;;;;;;5073681;28;20037;-79
2022/10/19 07:44:57;;;;;;;1.77;0.40;;;6.40;99.90;;;;;;5078379;28;20394;-88
2022/10/19 07:47:23;;;;;;;1.20;0.50;;;6.60;99.90;;;;;;5044885;28;20037;-77
2022/10/19 07:49:49;;;;;;;1.90;0.60;;;6.70;99.90;;;;;;5071869;28;20032;-87
2022/10/19 07:52:14;;;;;;;4.07;0.60;;;6.90;99.90;;;;;;5066884;28;20081;-84
2022/10/19 07:54:40;;;;;;;1.13;0.43;;;6.90;99.90;;;;;;5066885;28;20020;-79
2022/10/19 07:57:06;;;;;;;4.22;0.60;;;7.00;99.90;;;;;;5065339;28;20028;-77
2022/10/19 07:59:32;;;;;;;3.38;0.70;;;7.20;99.90;;;;;;5048585;28;20028;-80
2022/10/19 08:02:01;;;;;;;1.73;0.70;;;7.40;99.90;;;;;;5061332;28;20048;-84
2022/10/19 08:04:26;;;;;;;1.88;0.55;;;7.50;99.90;;;;;;5057307;28;20025;-83
2022/10/19 08:06:52;;;;;;;2.35;0.50;;;7.70;99.90;;;;;;5058439;28;20534;-84
2022/10/19 08:09:17;;;;;;;2.17;0.50;;;7.80;99.90;;;;;;5066162;28;20070;-85
2022/10/19 08:11:43;;;;;;;3.35;0.60;;;8.10;99.90;;;;;;5057373;28;20032;-83
2022/10/19 08:14:09;;;;;;;1.60;0.52;;;8.30;99.90;;;;;;5053172;28;20033;-78
2022/10/19 08:16:43;;;;;;;1.83;0.60;;;8.40;99.90;;;;;;5039491;28;20469;-81
2022/10/19 08:19:14;;;;;;;1.92;0.52;;;8.50;99.90;;;;;;5039777;28;20469;-81
2022/10/19 08:21:42;;;;;;;2.22;0.60;;;8.70;99.90;;;;;;5059422;28;20052;-85
2022/10/19 08:24:08;;;;;;;2.70;0.73;;;8.70;99.90;;;;;;5072934;28;22521;-76
2022/10/19 08:26:37;;;;;;;1.95;0.60;;;8.80;99.90;;;;;;5049170;28;20037;-77
2022/10/19 08:29:12;;;;;;;2.33;0.70;;;8.90;99.90;;;;;;5037052;28;20036;-78
2022/10/19 08:31:38;;;;;;;1.40;0.50;;;9.00;99.90;;;;;;5050375;28;20028;-87
2022/10/19 08:34:04;;;;;;;2.13;0.50;;;9.20;99.90;;;;;;5059453;28;20431;-82
2022/10/19 08:36:31;;;;;;;1.40;0.40;;;9.30;99.90;;;;;;5038295;28;20037;-86
2022/10/19 08:38:57;;;;;;;1.10;0.40;;;9.50;99.90;;;;;;5039435;28;20561;-87
2022/10/19 08:41:39;;;;;;;1.90;0.40;;;9.60;99.90;;;;;;5058608;28;20119;-81
2022/10/19 08:44:22;;;;;;;1.48;0.30;;;9.70;99.90;;;;;;5057595;28;20037;-81
2022/10/19 08:47:02;;;;;;;1.65;0.35;;;10.00;99.90;;;;;;5054375;28;20386;-78
2022/10/19 08:49:29;;;;;;;;;;;10.20;99.90;;;;;;5070157;28;20501;-84
2022/10/19 08:51:59;;;;;;;1.63;0.40;;;10.30;99.90;;;;;;5070231;28;19909;-85
2022/10/19 08:54:55;;;;;;;1.05;0.30;;;10.40;99.90;;;;;;5053721;28;20028;-79
2022/10/19 08:57:53;;;;;;;2.33;0.50;;;10.60;99.90;;;;;;5059980;28;20119;-82
2022/10/19 09:00:48;;;;;;;0.77;0.30;;;10.60;99.90;;;;;;5059136;28;20021;-83
2022/10/19 09:03:56;;;;;;;0.73;0.30;;;10.80;99.90;;;;;;5056801;28;20021;-80
2022/10/19 09:06:36;;;;;;;1.52;0.30;;;11.00;99.90;;;;;;4975227;28;20034;-81
2022/10/19 09:09:02;;;;;;;2.47;0.70;;;11.10;99.90;;;;;;4982290;28;20466;-85
2022/10/19 09:11:33;;;;;;;1.00;0.20;;;11.20;99.90;;;;;;5001816;28;20197;-81
2022/10/19 09:14:19;;;;;;;1.92;0.30;;;11.30;99.90;;;;;;5002322;28;20046;-82
2022/10/19 09:16:45;;;;;;;1.80;0.50;;;11.30;99.90;;;;;;4984531;28;20030;-84
2022/10/19 09:19:30;;;;;;;1.02;0.20;;;11.50;99.90;;;;;;4972182;28;20026;-79
2022/10/19 09:22:14;;;;;;;3.95;0.57;;;11.60;99.90;;;;;;4984964;28;20189;-87
2022/10/19 09:24:50;;;;;;;2.28;0.30;;;11.70;99.90;;;;;;4985241;28;20046;-83
2022/10/19 09:27:24;;;;;;;1.20;0.30;;;11.80;99.90;;;;;;4983776;28;20203;-84
2022/10/19 09:29:53;;;;;;;2.75;0.30;;;11.80;99.90;;;;;;4983419;28;20116;-80
2022/10/19 09:32:30;;;;;;;1.52;0.30;;;11.90;99.90;;;;;;4969998;28;20391;-82
2022/10/19 09:35:03;;;;;;;1.67;0.40;;;12.20;99.90;;;;;;4984235;28;20037;-83
2022/10/19 09:37:35;;;;;;;3.85;0.40;;;12.10;99.90;;;;;;5024360;28;20550;-79
2022/10/19 09:40:01;;;;;;;1.05;0.20;;;12.20;99.90;;;;;;5058689;28;20025;-82
2022/10/19 09:42:31;;;;;;;3.17;0.30;;;12.40;99.90;;;;;;5040581;28;20088;-84
2022/10/19 09:44:59;;;;;;;0.63;0.25;;;12.50;99.90;;;;;;5057788;28;20556;-80
2022/10/19 09:47:31;;;;;;;3.17;0.30;;;12.50;99.90;;;;;;5062082;28;20465;-80
2022/10/19 09:50:28;;;;;;;1.55;0.40;;;12.60;99.90;;;;;;5062570;28;20391;-85
2022/10/19 09:53:01;;;;;;;1.90;0.40;;;12.50;99.90;;;;;;5047179;28;20051;-85
2022/10/19 09:55:40;;;;;;;3.00;1.02;;;12.40;99.90;;;;;;5058514;28;20028;-82
2022/10/19 09:58:12;;;;;;;1.57;0.40;;;12.50;99.90;;;;;;5057546;28;20179;-83
2022/10/19 10:00:54;;;;;;;3.65;0.60;;;12.70;99.90;;;;;;5057142;28;20025;-84
2022/10/19 10:03:26;;;;;;;1.48;0.50;;;12.70;99.90;;;;;;5048059;28;20032;-80
2022/10/19 10:05:52;;;;;;;3.05;0.60;;;12.80;99.90;;;;;;5059012;28;20170;-83
2022/10/19 10:08:25;;;;;;;0.93;0.30;;;12.80;99.90;;;;;;5060111;28;20090;-78
2022/10/19 10:11:00;;;;;;;1.63;0.30;;;13.10;99.90;;;;;;5059094;28;20040;-83
2022/10/19 10:13:26;;;;;;;1.65;0.30;;;13.00;99.90;;;;;;5060879;28;20465;-79
2022/10/19 10:16:02;;;;;;;1.88;0.30;;;13.00;99.90;;;;;;5065099;28;20033;-78
2022/10/19 10:18:28;;;;;;;1.67;0.30;;;13.00;99.90;;;;;;5073901;28;20037;-83
2022/10/19 10:21:01;;;;;;;1.27;0.20;;;13.00;99.90;;;;;;5072941;28;20021;-84
2022/10/19 10:23:35;;;;;;;0.95;0.20;;;13.30;99.90;;;;;;5055751;28;20389;-82
2022/10/19 10:26:01;;;;;;;2.63;0.20;;;13.40;99.90;;;;;;5059398;28;20028;-78
2022/10/19 10:28:29;;;;;;;0.98;0.20;;;13.30;99.90;;;;;;5059124;28;20050;-80
2022/10/19 10:31:00;;;;;;;0.70;0.13;;;13.40;99.90;;;;;;5042130;28;20506;-78
2022/10/19 10:33:28;;;;;;;1.38;0.20;;;13.50;99.90;;;;;;5059814;28;20068;-84
2022/10/19 10:36:01;;;;;;;0.95;0.20;;;13.50;99.90;;;;;;5057515;28;20033;-81
2022/10/19 10:38:32;;;;;;;1.08;0.20;;;13.60;99.90;;;;;;5072070;28;20619;-82
2022/10/19 10:41:14;;;;;;;2.17;0.20;;;13.60;99.90;;;;;;5060100;28;20381;-81
2022/10/19 10:44:00;;;;;;;0.98;0.20;;;13.70;99.90;;;;;;5061581;28;20036;-84
2022/10/19 10:46:33;;;;;;;0.75;0.10;;;13.70;99.90;;;;;;5055613;28;20162;-84
2022/10/19 10:49:04;;;;;;;1.58;0.20;;;13.80;99.90;;;;;;5059881;28;20112;-82
2022/10/19 10:51:47;;;;;;;1.25;0.17;;;13.90;99.90;;;;;;5054782;28;20045;-79
2022/10/19 10:54:22;;;;;;;2.45;0.20;;;14.10;99.90;;;;;;5056078;28;20028;-84
2022/10/19 10:57:08;;;;;;;0.95;0.20;;;14.10;99.90;;;;;;5055282;28;20518;-83
2022/10/19 11:00:14;;;;;;;2.47;0.20;;;14.10;99.90;;;;;;5037158;28;20065;-83
2022/10/19 11:02:49;;;;;;;1.45;0.20;;;13.90;99.90;;;;;;5004478;28;20038;-83
2022/10/19 11:05:56;;;;;;;2.58;0.20;;;13.80;99.90;;;;;;4986246;28;20046;-78
2022/10/19 11:08:24;;;;;;;1.48;0.10;;;13.90;99.90;;;;;;4915459;29;20039;-80
2022/10/19 11:11:07;;;;;;;1.08;0.10;;;14.00;99.90;;;;;;4899241;29;20037;-84
2022/10/19 11:13:42;;;;;;;1.02;0.10;;;14.00;99.90;;;;;;4930792;29;20067;-85
2022/10/19 11:16:37;;;;;;;1.35;0.10;;;14.00;99.90;;;;;;4917990;29;20086;-77
2022/10/19 11:19:23;;;;;;;1.35;0.10;;;14.20;99.90;;;;;;4900903;29;20131;-83
2022/10/19 11:22:25;;;;;;;2.38;0.20;;;14.10;99.90;;;;;;4933085;29;20567;-84
2022/10/19 11:25:25;;;;;;;1.95;0.10;;;14.10;99.90;;;;;;4932158;29;20058;-82
2022/10/19 11:27:59;;;;;;;1.65;0.13;;;14.10;99.90;;;;;;4934060;29;22663;-84
2022/10/19 11:30:26;;;;;;;3.33;0.40;;;14.10;99.90;;;;;;4933008;29;20130;-80
2022/10/19 11:33:22;;;;;;;1.00;0.10;;;14.20;99.90;;;;;;4933068;29;20043;-80
2022/10/19 11:35:52;;;;;;;1.70;0.10;;;14.10;99.90;;;;;;4940698;28;20034;-87
2022/10/19 11:38:23;;;;;;;0.88;0.10;;;14.20;99.90;;;;;;4990600;28;20431;-81
2022/10/19 11:41:06;;;;;;;2.20;0.10;;;14.30;99.90;;;;;;5055827;28;20029;-85
2022/10/19 11:44:09;;;;;;;1.15;0.10;;;14.40;99.90;;;;;;5039871;28;20036;-84
2022/10/19 11:46:46;;;;;;;2.10;0.15;;;14.20;99.90;;;;;;5057701;28;20036;-81
2022/10/19 11:49:15;;;;;;;2.05;0.20;;;14.20;99.90;;;;;;5053636;28;20056;-84
2022/10/19 11:51:48;;;;;;;2.45;0.10;;;14.20;99.90;;;;;;5053166;28;20493;-81
2022/10/19 11:54:32;;;;;;;1.67;0.22;;;14.20;99.90;;;;;;5055723;28;20397;-79
2022/10/19 11:57:20;;;;;;;0.95;0.10;;;14.50;99.90;;;;;;5056512;28;20044;-85
2022/10/19 12:00:17;;;;;;;1.38;0.10;;;14.50;99.90;;;;;;5043093;28;20024;-82
2022/10/19 12:03:16;;;;;;;2.78;0.13;;;14.40;99.90;;;;;;5058550;28;20064;-84
2022/10/19 12:06:09;;;;;;;1.27;0.10;;;14.50;99.90;;;;;;5058116;28;20123;-83
2022/10/19 12:08:47;;;;;;;1.45;0.17;;;14.40;99.90;;;;;;5037779;28;20515;-83
2022/10/19 12:11:46;;;;;;;0.70;0.10;;;14.50;99.90;;;;;;5057710;28;20025;-85
2022/10/19 12:14:16;;;;;;;1.45;0.10;;;14.50;99.90;;;;;;5047914;28;20051;-83
2022/10/19 12:16:50;;;;;;;1.63;0.10;;;14.50;99.90;;;;;;5060163;28;20492;-82
2022/10/19 12:19:27;;;;;;;0.93;0.10;;;14.60;99.90;;;;;;5071405;28;20092;-86
2022/10/19 12:21:58;;;;;;;2.38;0.10;;;14.50;99.90;;;;;;5059953;28;20385;-80
2022/10/19 12:24:27;;;;;;;1.90;0.10;;;14.50;99.90;;;;;;5040311;28;20029;-83
2022/10/19 12:26:54;;;;;;;1.55;0.10;;;14.60;99.90;;;;;;5062245;28;20041;-84
2022/10/19 12:29:26;;;;;;;1.10;0.10;;;14.30;99.90;;;;;;5069934;28;20029;-78
2022/10/19 12:31:54;;;;;;;1.42;0.20;;;14.50;99.90;;;;;;5054875;28;20615;-84
2022/10/19 12:34:44;;;;;;;0.77;0.15;;;14.40;99.90;;;;;;5057100;28;20067;-84
2022/10/19 12:37:30;;;;;;;3.72;0.30;;;14.40;99.90;;;;;;5056494;28;20024;-81
2022/10/19 12:40:01;;;;;;;1.48;0.10;;;14.40;99.90;;;;;;5052138;28;20033;-86
2022/10/19 12:42:50;;;;;;;1.20;0.10;;;14.30;99.90;;;;;;5054064;28;20496;-85
2022/10/19 12:45:29;;;;;;;0.90;0.10;;;14.40;99.90;;;;;;5054328;28;20401;-85
2022/10/19 12:48:07;;;;;;;0.60;0.08;;;14.50;99.90;;;;;;5058330;28;20067;-86
2022/10/19 12:50:47;;;;;;;1.77;0.10;;;14.60;99.90;;;;;;5043455;28;20160;-81
2022/10/19 12:53:37;;;;;;;1.65;0.10;;;14.60;99.90;;;;;;5053798;28;20037;-84
2022/10/19 12:56:08;;;;;;;1.52;0.10;;;14.60;99.90;;;;;;5056807;28;20100;-79
2022/10/19 12:58:43;;;;;;;0.82;0.10;;;14.70;99.90;;;;;;5039493;28;20044;-84
2022/10/19 13:01:20;;;;;;;1.00;0.55;;;14.70;99.90;;;;;;5054594;28;20028;-80
2022/10/19 13:03:49;;;;;;;1.55;0.10;;;14.50;99.90;;;;;;5036921;28;20506;-76
2022/10/19 13:06:23;;;;;;;2.42;0.13;;;14.70;99.90;;;;;;5037669;28;20212;-86
2022/10/19 13:08:52;;;;;;;2.03;0.17;;;14.60;99.90;;;;;;5058936;28;20163;-86
2022/10/19 13:11:18;;;;;;;1.50;0.10;;;14.60;99.90;;;;;;5056344;28;20031;-78
2022/10/19 13:14:00;;;;;;;1.30;0.32;;;14.70;99.90;;;;;;5062639;28;20029;-86
2022/10/19 13:16:29;;;;;;;0.65;0.10;;;14.90;99.90;;;;;;5053596;28;20032;-83
2022/10/19 13:19:13;;;;;;;2.92;0.20;;;14.60;99.90;;;;;;5055990;28;20112;-83